createdAt,value
2019-04-10T00:01:22.337Z,76.44
2019-04-10T00:03:51.598Z,76.81
2019-04-10T00:06:21.668Z,77.01
2019-04-10T00:08:54.706Z,76.97
2019-04-10T00:11:34.615Z,77.57
2019-04-10T00:14:10.281Z,77.54
2019-04-10T00:16:40.570Z,77.84
2019-04-10T00:19:13.132Z,78.54
2019-04-10T00:21:47.312Z,78.00
2019-04-10T00:24:18.223Z,77.34
2019-04-10T00:26:48.029Z,77.23
2019-04-10T00:29:20.358Z,76.97
2019-04-10T00:31:56.371Z,76.76
2019-04-10T00:34:29.606Z,76.88
2019-04-10T00:37:03.847Z,77.52
2019-04-10T00:39:32.924Z,77.58
2019-04-10T00:42:05.080Z,77.95
2019-04-10T00:44:38.338Z,78.46
2019-04-10T00:47:10.828Z,78.29
2019-04-10T00:49:40.285Z,77.86
2019-04-10T00:52:14.264Z,78.22
2019-04-10T00:54:44.609Z,77.10
2019-04-10T00:57:15.077Z,76.74
2019-04-10T00:59:44.236Z,76.03
2019-04-10T01:02:13.291Z,75.61
2019-04-10T01:04:42.827Z,75.03
2019-04-10T01:07:12.747Z,74.96
2019-04-10T01:09:43.763Z,75.26
2019-04-10T01:12:17.828Z,75.41
2019-04-10T01:14:48.545Z,75.55
2019-04-10T01:17:20.622Z,75.11
2019-04-10T01:19:50.281Z,75.36
2019-04-10T01:22:23.909Z,75.81
2019-04-10T01:24:54.347Z,76.00
2019-04-10T01:27:28.520Z,76.06
2019-04-10T01:30:04.219Z,76.05
2019-04-10T01:32:39.766Z,76.26
2019-04-10T01:35:09.921Z,76.48
2019-04-10T01:37:50.272Z,76.48
2019-04-10T01:40:12.952Z,77.07
2019-04-10T01:43:00.443Z,77.43
2019-04-10T01:45:17.531Z,78.29
2019-04-10T01:47:47.614Z,78.23
2019-04-10T01:50:17.948Z,78.83
2019-04-10T01:52:47.728Z,78.77
2019-04-10T01:55:25.289Z,78.94
2019-04-10T01:57:54.703Z,79.23
2019-04-10T02:00:24.485Z,79.87
2019-04-10T02:02:56.688Z,80.68
2019-04-10T02:05:33.227Z,80.58
2019-04-10T02:08:09.075Z,80.86
2019-04-10T02:10:43.068Z,81.86
2019-04-10T02:13:12.164Z,80.63
2019-04-10T02:15:43.982Z,80.20
2019-04-10T02:18:15.944Z,80.43
2019-04-10T02:20:47.735Z,81.09
2019-04-10T02:23:20.692Z,82.01
2019-04-10T02:25:53.459Z,81.39
2019-04-10T02:28:22.776Z,81.29
2019-04-10T02:30:52.101Z,81.30
2019-04-10T02:33:21.269Z,81.01
2019-04-10T02:35:50.571Z,81.43
2019-04-10T02:38:36.288Z,81.61
2019-04-10T02:40:53.364Z,81.22
2019-04-10T02:43:23.299Z,81.17
2019-04-10T02:45:53.068Z,81.08
2019-04-10T02:48:23.467Z,81.79
2019-04-10T02:50:55.543Z,81.92
2019-04-10T02:53:29.603Z,80.98
2019-04-10T02:56:00.181Z,80.95
2019-04-10T02:58:32.431Z,80.05
2019-04-10T03:01:03.178Z,79.01
2019-04-10T03:03:34.225Z,79.52
2019-04-10T03:06:09.228Z,79.93
2019-04-10T03:09:02.209Z,79.58
2019-04-10T03:11:31.206Z,79.26
2019-04-10T03:14:04.622Z,78.55
2019-04-10T03:16:33.754Z,77.86
2019-04-10T03:19:05.391Z,78.29
2019-04-10T03:21:33.663Z,78.07
2019-04-10T03:24:06.261Z,78.83
2019-04-10T03:26:35.296Z,78.86
2019-04-10T03:29:05.334Z,79.77
2019-04-10T03:31:34.654Z,79.93
2019-04-10T03:34:28.209Z,79.68
2019-04-10T03:36:58.065Z,78.98
2019-04-10T03:39:27.786Z,78.66
2019-04-10T03:42:00.909Z,77.69
2019-04-10T03:44:30.484Z,77.15
2019-04-10T03:47:00.796Z,77.07
2019-04-10T03:49:29.914Z,77.29
2019-04-10T03:51:58.970Z,77.46
2019-04-10T03:54:30.218Z,77.26
2019-04-10T03:57:02.495Z,77.50
2019-04-10T03:59:32.679Z,77.52
2019-04-10T04:02:03.213Z,77.20
2019-04-10T04:04:43.941Z,77.04
2019-04-10T04:07:14.099Z,78.11
2019-04-10T04:09:43.997Z,79.16
2019-04-10T04:12:14.754Z,78.78
2019-04-10T04:14:48.465Z,78.14
2019-04-10T04:17:20.068Z,77.88
2019-04-10T04:19:52.637Z,78.24
2019-04-10T04:22:25.009Z,78.03
2019-04-10T04:24:58.186Z,78.34
2019-04-10T04:27:27.720Z,78.15
2019-04-10T04:29:58.154Z,78.05
2019-04-10T04:32:27.352Z,78.44
2019-04-10T04:34:59.832Z,77.97
2019-04-10T04:37:30.100Z,77.50
2019-04-10T04:40:02.961Z,77.45
2019-04-10T04:42:33.293Z,77.22
2019-04-10T04:45:07.095Z,77.29
2019-04-10T04:47:39.769Z,77.37
2019-04-10T04:50:09.764Z,76.90
2019-04-10T04:52:42.111Z,76.48
2019-04-10T04:55:12.230Z,76.39
2019-04-10T04:57:42.319Z,76.60
2019-04-10T05:00:13.204Z,76.56
2019-04-10T05:02:42.669Z,76.97
2019-04-10T05:05:12.103Z,76.83
2019-04-10T05:07:54.772Z,76.78
2019-04-10T05:10:18.514Z,76.84
2019-04-10T05:12:47.638Z,76.78
2019-04-10T05:15:17.102Z,77.17
2019-04-10T05:17:47.126Z,76.60
2019-04-10T05:20:19.041Z,76.81
2019-04-10T05:22:49.190Z,77.58
2019-04-10T05:25:22.586Z,77.57
2019-04-10T05:27:55.940Z,77.05
2019-04-10T05:30:25.119Z,76.57
2019-04-10T05:32:55.702Z,76.73
2019-04-10T05:35:25.707Z,77.34
2019-04-10T05:37:56.099Z,76.72
2019-04-10T05:40:26.054Z,76.58
2019-04-10T05:42:55.561Z,75.89
2019-04-10T05:45:27.564Z,75.70
2019-04-10T05:48:01.255Z,75.43
2019-04-10T05:50:35.725Z,75.33
2019-04-10T05:53:07.702Z,74.96
2019-04-10T05:55:42.006Z,75.42
2019-04-10T05:58:13.364Z,75.44
2019-04-10T06:00:43.172Z,74.93
2019-04-10T06:03:12.773Z,74.51
2019-04-10T06:05:42.439Z,74.38
2019-04-10T06:08:16.106Z,75.08
2019-04-10T06:10:48.013Z,75.30
2019-04-10T06:13:22.921Z,74.86
2019-04-10T06:15:57.347Z,74.66
2019-04-10T06:18:27.150Z,75.25
2019-04-10T06:20:56.671Z,74.82
2019-04-10T06:23:25.980Z,74.77
2019-04-10T06:25:56.309Z,74.04
2019-04-10T06:28:27.940Z,73.73
2019-04-10T06:30:59.112Z,73.70
2019-04-10T06:33:35.998Z,73.47
2019-04-10T06:36:00.814Z,73.79
2019-04-10T06:38:31.751Z,73.52
2019-04-10T06:41:02.181Z,73.46
2019-04-10T06:43:33.578Z,73.82
2019-04-10T06:46:08.361Z,74.11
2019-04-10T06:48:48.655Z,73.48
2019-04-10T06:51:19.797Z,73.22
2019-04-10T06:54:02.567Z,73.55
2019-04-10T06:56:48.753Z,73.74
2019-04-10T06:59:21.234Z,73.44
2019-04-10T07:01:54.518Z,73.94
2019-04-10T07:04:28.767Z,73.41
2019-04-10T07:07:04.494Z,72.91
2019-04-10T07:09:27.621Z,73.10
2019-04-10T07:12:00.975Z,72.81
2019-04-10T07:14:33.020Z,73.25
2019-04-10T07:17:07.118Z,73.74
2019-04-10T07:19:41.413Z,74.01
2019-04-10T07:22:20.735Z,73.89
2019-04-10T07:24:51.832Z,73.69
2019-04-10T07:27:21.841Z,73.99
2019-04-10T07:29:55.119Z,73.83
2019-04-10T07:32:24.241Z,73.33
2019-04-10T07:34:58.247Z,73.05
2019-04-10T07:37:25.982Z,73.36
2019-04-10T07:39:59.733Z,73.53
2019-04-10T07:42:38.036Z,73.65
2019-04-10T07:45:04.459Z,73.69
2019-04-10T07:47:33.525Z,74.47
2019-04-10T07:50:04.580Z,73.69
2019-04-10T07:52:34.989Z,73.99
2019-04-10T07:55:08.605Z,73.77
2019-04-10T07:57:38.485Z,72.91
2019-04-10T08:00:11.185Z,73.66
2019-04-10T08:02:40.890Z,73.49
2019-04-10T08:05:12.264Z,74.07
2019-04-10T08:07:45.120Z,72.81
2019-04-10T08:10:14.320Z,72.98
2019-04-10T08:12:50.421Z,73.38
2019-04-10T08:15:23.202Z,72.98
2019-04-10T08:17:52.627Z,73.21
2019-04-10T08:20:24.021Z,73.14
2019-04-10T08:22:59.446Z,73.12
2019-04-10T08:25:29.135Z,72.73
2019-04-10T08:28:02.763Z,72.70
2019-04-10T08:30:32.805Z,72.80
2019-04-10T08:33:04.433Z,72.87
2019-04-10T08:35:37.913Z,72.50
2019-04-10T08:38:07.674Z,71.94
2019-04-10T08:40:38.264Z,72.39
2019-04-10T08:43:09.749Z,73.04
2019-04-10T08:45:46.657Z,72.04
2019-04-10T08:48:15.909Z,72.74
2019-04-10T08:50:47.989Z,72.30
2019-04-10T08:53:20.127Z,71.66
2019-04-10T08:55:50.416Z,70.20
2019-04-10T08:58:20.927Z,72.04
2019-04-10T09:00:52.365Z,72.27
2019-04-10T09:03:24.613Z,71.75
2019-04-10T09:05:55.282Z,71.51
2019-04-10T09:08:26.696Z,71.80
2019-04-10T09:10:56.066Z,71.88
2019-04-10T09:13:26.871Z,71.28
2019-04-10T09:15:58.398Z,70.15
2019-04-10T09:18:29.510Z,69.35
2019-04-10T09:21:05.005Z,68.69
2019-04-10T09:23:44.403Z,69.46
2019-04-10T09:26:08.045Z,69.05
2019-04-10T09:28:42.243Z,69.51
2019-04-10T09:31:16.191Z,69.21
2019-04-10T09:33:45.414Z,69.02
2019-04-10T09:36:15.344Z,69.84
2019-04-10T09:38:45.541Z,69.80
2019-04-10T09:41:17.477Z,69.82
2019-04-10T09:43:47.626Z,70.65
2019-04-10T09:46:20.438Z,70.15
2019-04-10T09:48:52.010Z,70.53
2019-04-10T09:51:23.586Z,71.40
2019-04-10T09:53:54.538Z,71.81
2019-04-10T09:56:30.528Z,71.66
2019-04-10T09:59:05.300Z,71.30
2019-04-10T10:01:37.954Z,71.13
2019-04-10T10:04:07.168Z,71.33
2019-04-10T10:06:39.614Z,70.85
2019-04-10T10:09:17.751Z,70.27
2019-04-10T10:11:47.354Z,69.76
2019-04-10T10:14:19.656Z,69.41
2019-04-10T10:16:50.616Z,68.80
2019-04-10T10:19:19.696Z,68.74
2019-04-10T10:21:49.081Z,69.87
2019-04-10T10:24:24.811Z,68.93
2019-04-10T10:26:55.644Z,68.31
2019-04-10T10:29:25.989Z,68.32
2019-04-10T10:31:57.062Z,68.76
2019-04-10T10:34:30.299Z,68.80
2019-04-10T10:37:00.168Z,68.88
2019-04-10T10:39:37.219Z,69.37
2019-04-10T10:42:07.512Z,68.42
2019-04-10T10:44:38.270Z,68.31
2019-04-10T10:47:11.641Z,68.13
2019-04-10T10:49:40.258Z,67.64
2019-04-10T10:52:11.131Z,67.64
2019-04-10T10:54:41.094Z,67.34
2019-04-10T10:57:11.003Z,67.84
2019-04-10T11:00:04.123Z,67.08
2019-04-10T11:02:37.989Z,65.32
2019-04-10T11:05:11.232Z,65.81
2019-04-10T11:07:40.632Z,65.57
2019-04-10T11:10:12.562Z,65.58
2019-04-10T11:12:48.597Z,65.56
2019-04-10T11:15:18.373Z,64.30
2019-04-10T11:18:00.265Z,64.34
2019-04-10T11:20:33.936Z,64.83
2019-04-10T11:23:03.996Z,63.54
2019-04-10T11:25:33.463Z,64.89
2019-04-10T11:28:05.920Z,64.78
2019-04-10T11:30:36.271Z,64.53
2019-04-10T11:33:06.473Z,64.36
2019-04-10T11:35:35.546Z,64.19
2019-04-10T11:38:07.209Z,63.26
2019-04-10T11:40:36.639Z,63.10
2019-04-10T11:43:07.690Z,63.59
2019-04-10T11:45:43.547Z,63.10
2019-04-10T11:48:10.334Z,62.97
2019-04-10T11:50:46.197Z,62.88
2019-04-10T11:53:17.782Z,63.18
2019-04-10T11:55:53.623Z,62.99
2019-04-10T11:58:27.107Z,61.86
2019-04-10T12:01:02.549Z,62.52
2019-04-10T12:03:32.223Z,62.45
2019-04-10T12:06:11.470Z,61.97
2019-04-10T12:11:14.558Z,60.37
2019-04-10T12:13:49.084Z,61.01
2019-04-10T12:16:18.286Z,59.76
2019-04-10T12:18:49.319Z,58.35
2019-04-10T12:21:18.436Z,58.71
2019-04-10T12:23:50.052Z,56.75
2019-04-10T12:26:25.483Z,57.48
2019-04-10T12:28:56.187Z,56.05
2019-04-10T12:31:28.690Z,58.24
2019-04-10T12:33:57.787Z,56.21
2019-04-10T12:36:26.851Z,56.77
2019-04-10T12:39:00.561Z,53.36
2019-04-10T12:41:37.868Z,55.50
2019-04-10T12:44:07.781Z,54.09
2019-04-10T12:46:41.527Z,54.72
2019-04-10T12:49:13.038Z,54.65
2019-04-10T12:51:45.748Z,55.45
2019-04-10T12:54:19.366Z,55.46
2019-04-10T12:56:48.620Z,54.90
2019-04-10T12:59:21.478Z,54.99
2019-04-10T13:01:55.406Z,55.71
2019-04-10T13:04:25.927Z,56.54
2019-04-10T13:06:55.029Z,54.11
2019-04-10T13:09:27.504Z,53.83
2019-04-10T13:11:56.746Z,54.90
2019-04-10T13:14:26.598Z,55.78
2019-04-10T13:17:00.908Z,55.89
2019-04-10T13:19:35.648Z,54.75
2019-04-10T13:22:06.189Z,55.65
2019-04-10T13:24:38.871Z,55.59
2019-04-10T13:27:08.095Z,56.11
2019-04-10T13:29:42.610Z,55.71
2019-04-10T13:32:16.869Z,54.71
2019-04-10T13:34:46.361Z,53.08
2019-04-10T13:37:15.812Z,53.68
2019-04-10T13:39:45.355Z,54.48
2019-04-10T13:42:14.760Z,53.43
2019-04-10T13:44:43.989Z,53.97
2019-04-10T13:47:15.408Z,54.28
2019-04-10T13:49:44.685Z,54.13
2019-04-10T13:52:20.248Z,53.62
2019-04-10T13:54:52.751Z,53.44
2019-04-10T13:57:28.708Z,53.63
2019-04-10T14:00:01.742Z,54.19
2019-04-10T14:02:36.008Z,54.39
2019-04-10T14:05:08.472Z,53.47
2019-04-10T14:07:38.836Z,54.52
2019-04-10T14:10:12.995Z,53.56
2019-04-10T14:12:43.021Z,52.43
2019-04-10T14:15:24.322Z,52.75
2019-04-10T14:17:52.342Z,53.64
2019-04-10T14:20:23.653Z,53.17
2019-04-10T14:23:08.452Z,52.96
2019-04-10T14:25:45.290Z,54.27
2019-04-10T14:28:19.598Z,53.49
2019-04-10T14:30:47.329Z,54.41
2019-04-10T14:33:19.772Z,54.27
2019-04-10T14:35:49.521Z,54.59
2019-04-10T14:38:25.205Z,53.29
2019-04-10T14:40:55.543Z,53.95
2019-04-10T14:43:25.156Z,53.77
2019-04-10T14:45:55.440Z,53.91
2019-04-10T14:48:24.620Z,53.55
2019-04-10T14:50:56.218Z,53.01
2019-04-10T14:53:27.939Z,52.83
2019-04-10T14:55:58.109Z,52.26
2019-04-10T14:58:30.582Z,52.35
2019-04-10T15:01:08.393Z,52.15
2019-04-10T15:03:36.585Z,52.69
2019-04-10T15:06:06.790Z,52.85
2019-04-10T15:08:39.647Z,52.09
2019-04-10T15:11:12.687Z,53.23
2019-04-10T15:13:42.385Z,51.13
2019-04-10T15:16:14.813Z,50.88
2019-04-10T15:18:47.821Z,51.45
2019-04-10T15:21:17.045Z,50.40
2019-04-10T15:23:46.826Z,49.92
2019-04-10T15:26:16.032Z,50.04
2019-04-10T15:28:45.102Z,51.14
2019-04-10T15:31:15.149Z,51.02
2019-04-10T15:33:45.004Z,51.23
2019-04-10T15:36:22.232Z,51.01
2019-04-10T15:38:52.756Z,50.38
2019-04-10T15:41:23.908Z,51.46
2019-04-10T15:43:55.148Z,50.12
2019-04-10T15:46:24.761Z,49.84
2019-04-10T15:48:54.989Z,49.81
2019-04-10T15:51:27.930Z,49.72
2019-04-10T15:53:59.110Z,50.00
2019-04-10T15:56:28.286Z,49.97
2019-04-10T15:58:58.009Z,50.28
2019-04-10T16:01:28.938Z,49.70
2019-04-10T16:03:58.946Z,50.14
2019-04-10T16:06:29.248Z,49.07
2019-04-10T16:09:00.930Z,49.13
2019-04-10T16:11:47.995Z,49.07
2019-04-10T16:14:23.189Z,49.08
2019-04-10T16:17:02.536Z,49.66
2019-04-10T16:19:56.345Z,49.27
2019-04-10T16:22:42.649Z,49.83
2019-04-10T16:25:44.826Z,49.23
2019-04-10T16:28:15.562Z,48.76
2019-04-10T16:30:44.667Z,48.91
2019-04-10T16:33:14.728Z,49.05
2019-04-10T16:35:46.245Z,49.26
2019-04-10T16:38:16.372Z,49.14
2019-04-10T16:40:47.978Z,49.62
2019-04-10T16:43:17.159Z,49.62
2019-04-10T16:45:46.919Z,49.62
2019-04-10T16:48:16.939Z,49.56
2019-04-10T16:50:48.109Z,49.04
2019-04-10T16:53:20.053Z,49.09
2019-04-10T16:55:53.565Z,48.93
2019-04-10T16:58:23.547Z,49.01
2019-04-10T17:00:56.156Z,48.94
2019-04-10T17:03:27.628Z,50.00
2019-04-10T17:05:58.647Z,49.13
2019-04-10T17:08:27.948Z,49.47
2019-04-10T17:10:57.454Z,49.99
2019-04-10T17:13:26.776Z,49.27
2019-04-10T17:15:55.919Z,49.44
2019-04-10T17:18:26.098Z,49.29
2019-04-10T17:20:57.250Z,49.72
2019-04-10T17:23:28.864Z,50.03
2019-04-10T17:26:04.484Z,50.64
2019-04-10T17:28:34.532Z,50.02
2019-04-10T17:31:07.510Z,50.63
2019-04-10T17:33:38.399Z,51.12
2019-04-10T17:36:09.798Z,50.65
2019-04-10T17:38:39.713Z,50.71
2019-04-10T17:41:12.207Z,51.16
2019-04-10T17:43:41.520Z,50.86
2019-04-10T17:46:11.088Z,51.40
2019-04-10T17:48:44.049Z,50.91
2019-04-10T17:51:17.787Z,50.76
2019-04-10T17:53:47.427Z,51.18
2019-04-10T17:56:16.837Z,51.38
2019-04-10T17:58:46.339Z,51.31
2019-04-10T18:01:27.053Z,51.42
2019-04-10T18:03:58.979Z,51.34
2019-04-10T18:06:28.473Z,51.47
2019-04-10T18:09:05.429Z,51.70
2019-04-10T18:11:37.559Z,51.85
2019-04-10T18:14:09.446Z,52.73
2019-04-10T18:16:44.273Z,52.86
2019-04-10T18:19:15.340Z,52.76
2019-04-10T18:21:49.874Z,53.10
2019-04-10T18:24:22.729Z,53.41
2019-04-10T18:26:55.295Z,52.97
2019-04-10T18:29:28.301Z,53.11
2019-04-10T18:32:00.114Z,53.41
2019-04-10T18:34:31.495Z,53.19
2019-04-10T18:37:05.642Z,53.11
2019-04-10T18:39:43.834Z,55.37
2019-04-10T18:42:17.330Z,56.38
2019-04-10T18:44:49.392Z,56.46
2019-04-10T18:47:19.063Z,57.70
2019-04-10T18:49:48.196Z,58.68
2019-04-10T18:52:19.202Z,58.71
2019-04-10T18:54:48.165Z,59.58
2019-04-10T18:57:20.042Z,59.31
2019-04-10T19:00:15.251Z,59.05
2019-04-10T19:03:05.462Z,59.53
2019-04-10T19:05:38.375Z,58.98
2019-04-10T19:08:07.531Z,58.39
2019-04-10T19:10:36.862Z,57.94
2019-04-10T19:13:07.460Z,57.39
2019-04-10T19:15:38.720Z,56.90
2019-04-10T19:18:11.486Z,56.93
2019-04-10T19:20:40.895Z,56.85
2019-04-10T19:23:14.974Z,56.78
2019-04-10T19:25:45.543Z,56.74
2019-04-10T19:28:28.847Z,56.06
2019-04-10T19:31:07.944Z,56.14
2019-04-10T19:33:29.178Z,55.71
2019-04-10T19:35:59.415Z,55.00
2019-04-10T19:38:29.423Z,55.01
2019-04-10T19:41:00.542Z,55.12
2019-04-10T19:43:32.102Z,55.16
2019-04-10T19:46:00.698Z,54.74
2019-04-10T19:48:31.075Z,54.07
2019-04-10T19:51:00.172Z,54.71
2019-04-10T19:53:33.149Z,54.90
2019-04-10T19:56:04.790Z,53.81
2019-04-10T19:58:35.013Z,53.65
2019-04-10T20:01:05.169Z,54.18
2019-04-10T20:03:35.387Z,53.90
2019-04-10T20:06:06.336Z,53.27
2019-04-10T20:08:38.103Z,53.01
2019-04-10T20:11:07.213Z,52.95
2019-04-10T20:13:39.289Z,52.62
2019-04-10T20:16:13.087Z,52.56
2019-04-10T20:18:43.274Z,51.96
2019-04-10T20:21:12.454Z,51.76
2019-04-10T20:23:41.530Z,51.91
2019-04-10T20:26:10.736Z,52.10
2019-04-10T20:28:51.791Z,52.57
2019-04-10T20:31:26.607Z,52.31
2019-04-10T20:33:56.950Z,52.27
2019-04-10T20:36:28.991Z,52.04
2019-04-10T20:38:59.347Z,51.17
2019-04-10T20:41:28.757Z,51.18
2019-04-10T20:43:59.519Z,51.25
2019-04-10T20:46:31.632Z,51.53
2019-04-10T20:49:03.179Z,51.68
2019-04-10T20:51:32.558Z,51.50
2019-04-10T20:54:06.545Z,51.67
2019-04-10T20:56:36.820Z,51.78
2019-04-10T20:59:07.793Z,51.88
2019-04-10T21:01:37.242Z,51.86
2019-04-10T21:04:07.301Z,52.21
2019-04-10T21:06:39.460Z,52.02
2019-04-10T21:09:11.377Z,52.85
2019-04-10T21:11:58.864Z,52.57
2019-04-10T21:14:17.707Z,52.23
2019-04-10T21:16:51.967Z,52.26
2019-04-10T21:19:21.042Z,52.71
2019-04-10T21:21:51.691Z,52.71
2019-04-10T21:24:23.175Z,52.90
2019-04-10T21:26:52.767Z,52.51
2019-04-10T21:29:41.936Z,52.93
2019-04-10T21:32:34.653Z,52.63
2019-04-10T21:35:12.179Z,53.20
2019-04-10T21:37:50.750Z,53.66
2019-04-10T21:40:20.901Z,53.52
2019-04-10T21:42:50.023Z,53.85
2019-04-10T21:45:22.611Z,53.44
2019-04-10T21:47:52.306Z,53.93
2019-04-10T21:50:23.149Z,53.91
2019-04-10T21:52:53.071Z,53.92
2019-04-10T21:55:25.235Z,54.18
2019-04-10T21:57:55.393Z,54.41
2019-04-10T22:00:42.966Z,54.39
2019-04-10T22:03:13.503Z,54.58
2019-04-10T22:05:46.828Z,54.95
2019-04-10T22:08:25.870Z,55.02
2019-04-10T22:11:00.789Z,55.01
2019-04-10T22:13:32.392Z,54.51
2019-04-10T22:16:01.797Z,54.24
2019-04-10T22:18:33.713Z,54.10
2019-04-10T22:21:04.184Z,53.63
2019-04-10T22:23:34.341Z,53.38
2019-04-10T22:26:09.464Z,53.28
2019-04-10T22:28:41.331Z,53.12
2019-04-10T22:31:11.654Z,52.97
2019-04-10T22:33:42.862Z,52.92
2019-04-10T22:36:12.879Z,53.21
2019-04-10T22:38:46.202Z,53.28
2019-04-10T22:41:23.747Z,53.24
2019-04-10T22:43:46.973Z,53.45
2019-04-10T22:46:17.226Z,53.36
2019-04-10T22:48:48.592Z,53.18
2019-04-10T22:51:27.249Z,53.39
2019-04-10T22:53:58.377Z,53.46
2019-04-10T22:56:30.087Z,53.19
2019-04-10T22:59:10.146Z,53.10
2019-04-10T23:01:40.890Z,53.00
2019-04-10T23:04:12.002Z,52.78
2019-04-10T23:06:41.693Z,52.75
2019-04-10T23:09:11.960Z,52.74
2019-04-10T23:11:46.183Z,52.86
2019-04-10T23:14:14.387Z,52.91
2019-04-10T23:16:44.838Z,53.24
2019-04-10T23:19:14.147Z,53.55
2019-04-10T23:21:47.013Z,53.46
2019-04-10T23:24:17.300Z,53.11
2019-04-10T23:26:47.068Z,52.97
2019-04-10T23:29:16.188Z,52.80
2019-04-10T23:31:48.499Z,52.79
2019-04-10T23:34:18.768Z,52.40
2019-04-10T23:36:51.333Z,52.16
2019-04-10T23:39:20.443Z,51.94
2019-04-10T23:41:52.322Z,51.87
2019-04-10T23:44:20.758Z,52.62
2019-04-10T23:46:51.674Z,52.44
2019-04-10T23:49:21.528Z,52.50
2019-04-10T23:51:55.707Z,52.54
2019-04-10T23:54:27.159Z,52.67
2019-04-10T23:56:56.773Z,52.55
2019-04-10T23:59:26.712Z,52.43
